createdAt,value
2023-02-28T00:00:48.331Z,1007.86
2023-02-28T00:01:48.792Z,1007.88
2023-02-28T00:02:48.318Z,1007.78
2023-02-28T00:03:49.156Z,1007.87
2023-02-28T00:04:48.320Z,1007.77
2023-02-28T00:05:48.822Z,1007.86
2023-02-28T00:06:49.070Z,1007.74
2023-02-28T00:07:48.165Z,1007.74
2023-02-28T00:08:48.227Z,1007.71
2023-02-28T00:09:48.296Z,1007.75
2023-02-28T00:10:48.182Z,1007.77
2023-02-28T00:11:48.176Z,1007.72
2023-02-28T00:12:48.142Z,1007.74
2023-02-28T00:13:48.292Z,1007.78
2023-02-28T00:14:48.119Z,1007.77
2023-02-28T00:15:48.177Z,1007.79
2023-02-28T00:16:48.278Z,1007.81
2023-02-28T00:17:48.167Z,1007.84
2023-02-28T00:18:48.143Z,1007.80
2023-02-28T00:19:48.046Z,1007.77
2023-02-28T00:20:48.122Z,1007.81
2023-02-28T00:21:48.108Z,1007.81
2023-02-28T00:22:48.238Z,1007.79
2023-02-28T00:23:48.050Z,1007.82
2023-02-28T00:24:48.248Z,1007.81
2023-02-28T00:25:48.061Z,1007.78
2023-02-28T00:26:48.116Z,1007.81
2023-02-28T00:27:47.970Z,1007.77
2023-02-28T00:28:48.198Z,1007.85
2023-02-28T00:29:48.022Z,1007.79
2023-02-28T00:30:48.131Z,1007.81
2023-02-28T00:31:48.748Z,1007.87
2023-02-28T00:32:48.125Z,1007.80
2023-02-28T00:33:48.127Z,1007.84
2023-02-28T00:34:47.993Z,1007.84
2023-02-28T00:35:47.990Z,1007.86
2023-02-28T00:36:47.987Z,1007.81
2023-02-28T00:37:48.244Z,1007.78
2023-02-28T00:38:47.941Z,1007.84
2023-02-28T00:39:47.917Z,1007.85
2023-02-28T00:40:48.022Z,1007.78
2023-02-28T00:41:47.894Z,1007.85
2023-02-28T00:42:48.132Z,1007.84
2023-02-28T00:43:47.865Z,1007.75
2023-02-28T00:44:47.905Z,1007.87
2023-02-28T00:45:47.860Z,1007.79
2023-02-28T00:46:47.765Z,1007.77
2023-02-28T00:47:47.920Z,1007.75
2023-02-28T00:48:47.759Z,1007.75
2023-02-28T00:49:47.793Z,1007.75
2023-02-28T00:50:47.771Z,1007.76
2023-02-28T00:51:47.726Z,1007.77
2023-02-28T00:52:47.962Z,1007.79
2023-02-28T00:53:47.820Z,1007.79
2023-02-28T00:54:47.941Z,1007.73
2023-02-28T00:55:47.767Z,1007.84
2023-02-28T00:56:47.814Z,1007.76
2023-02-28T00:57:47.786Z,1007.84
2023-02-28T00:58:47.709Z,1007.82
2023-02-28T00:59:47.753Z,1007.87
2023-02-28T01:00:47.825Z,1007.83
2023-02-28T01:01:47.688Z,1007.88
2023-02-28T01:02:47.674Z,1007.87
2023-02-28T01:03:47.661Z,1007.88
2023-02-28T01:04:47.657Z,1007.90
2023-02-28T01:05:47.678Z,1007.90
2023-02-28T01:06:47.651Z,1007.90
2023-02-28T01:07:47.629Z,1007.93
2023-02-28T01:08:47.628Z,1007.88
2023-02-28T01:09:47.603Z,1007.93
2023-02-28T01:10:47.757Z,1008.01
2023-02-28T01:11:47.585Z,1007.87
2023-02-28T01:12:47.545Z,1007.95
2023-02-28T01:13:47.603Z,1007.92
2023-02-28T01:14:47.708Z,1007.97
2023-02-28T01:15:47.518Z,1007.95
2023-02-28T01:16:47.683Z,1007.92
2023-02-28T01:17:47.490Z,1007.94
2023-02-28T01:18:47.522Z,1007.89
2023-02-28T01:19:47.521Z,1007.90
2023-02-28T01:20:47.589Z,1007.85
2023-02-28T01:21:47.511Z,1007.90
2023-02-28T01:22:47.692Z,1007.91
2023-02-28T01:23:47.732Z,1007.86
2023-02-28T01:24:48.454Z,1007.82
2023-02-28T01:25:48.548Z,1007.83
2023-02-28T01:26:47.447Z,1007.83
2023-02-28T01:27:47.536Z,1007.87
2023-02-28T01:28:47.415Z,1007.84
2023-02-28T01:29:47.455Z,1007.91
2023-02-28T01:30:47.611Z,1007.87
2023-02-28T01:31:47.396Z,1007.82
2023-02-28T01:32:47.416Z,1007.83
2023-02-28T01:33:48.040Z,1007.83
2023-02-28T01:34:47.355Z,1007.85
2023-02-28T01:35:47.510Z,1007.85
2023-02-28T01:36:47.381Z,1007.82
2023-02-28T01:37:47.319Z,1007.83
2023-02-28T01:38:47.334Z,1007.84
2023-02-28T01:39:47.273Z,1007.78
2023-02-28T01:40:47.390Z,1007.72
2023-02-28T01:41:47.268Z,1007.79
2023-02-28T01:42:47.287Z,1007.75
2023-02-28T01:43:47.424Z,1007.75
2023-02-28T01:44:47.618Z,1007.72
2023-02-28T01:45:47.330Z,1007.70
2023-02-28T01:46:47.290Z,1007.77
2023-02-28T01:47:47.444Z,1007.74
2023-02-28T01:48:47.241Z,1007.69
2023-02-28T01:49:47.206Z,1007.73
2023-02-28T01:50:47.531Z,1007.71
2023-02-28T01:51:47.287Z,1007.65
2023-02-28T01:52:47.277Z,1007.72
2023-02-28T01:53:47.237Z,1007.68
2023-02-28T01:54:47.273Z,1007.66
2023-02-28T01:55:47.117Z,1007.72
2023-02-28T01:56:47.142Z,1007.64
2023-02-28T01:57:47.316Z,1007.70
2023-02-28T01:58:47.089Z,1007.70
2023-02-28T01:59:48.000Z,1007.74
2023-02-28T02:00:47.078Z,1007.73
2023-02-28T02:01:47.277Z,1007.70
2023-02-28T02:02:47.082Z,1007.69
2023-02-28T02:03:47.181Z,1007.65
2023-02-28T02:04:47.039Z,1007.62
2023-02-28T02:05:47.037Z,1007.63
2023-02-28T02:06:47.028Z,1007.63
2023-02-28T02:07:47.013Z,1007.61
2023-02-28T02:08:47.023Z,1007.64
2023-02-28T02:09:47.005Z,1007.63
2023-02-28T02:10:47.113Z,1007.64
2023-02-28T02:11:47.214Z,1007.63
2023-02-28T02:12:47.100Z,1007.59
2023-02-28T02:13:46.924Z,1007.52
2023-02-28T02:14:46.907Z,1007.59
2023-02-28T02:15:46.967Z,1007.49
2023-02-28T02:16:46.928Z,1007.49
2023-02-28T02:17:47.030Z,1007.52
2023-02-28T02:18:46.926Z,1007.57
2023-02-28T02:19:46.865Z,1007.57
2023-02-28T02:20:46.899Z,1007.51
2023-02-28T02:21:46.859Z,1007.44
2023-02-28T02:22:46.991Z,1007.53
2023-02-28T02:23:46.909Z,1007.53
2023-02-28T02:24:46.912Z,1007.48
2023-02-28T02:25:46.946Z,1007.49
2023-02-28T02:26:46.908Z,1007.46
2023-02-28T02:27:46.919Z,1007.49
2023-02-28T02:28:46.810Z,1007.54
2023-02-28T02:29:46.896Z,1007.45
2023-02-28T02:30:46.869Z,1007.45
2023-02-28T02:31:46.894Z,1007.50
2023-02-28T02:32:46.798Z,1007.49
2023-02-28T02:33:46.761Z,1007.49
2023-02-28T02:34:46.781Z,1007.53
2023-02-28T02:35:46.780Z,1007.42
2023-02-28T02:36:47.045Z,1007.44
2023-02-28T02:37:46.699Z,1007.48
2023-02-28T02:38:46.867Z,1007.50
2023-02-28T02:39:46.714Z,1007.48
2023-02-28T02:40:46.675Z,1007.45
2023-02-28T02:41:46.717Z,1007.43
2023-02-28T02:42:46.670Z,1007.46
2023-02-28T02:43:46.672Z,1007.46
2023-02-28T02:44:46.638Z,1007.43
2023-02-28T02:45:47.653Z,1007.42
2023-02-28T02:46:46.763Z,1007.43
2023-02-28T02:47:46.662Z,1007.49
2023-02-28T02:48:46.640Z,1007.45
2023-02-28T02:50:21.300Z,1007.42
2023-02-28T02:50:46.771Z,1007.47
2023-02-28T02:51:48.517Z,1007.48
2023-02-28T02:55:02.193Z,1007.48
2023-02-28T02:56:02.956Z,1007.47
2023-02-28T02:57:16.956Z,1007.47
2023-02-28T02:58:02.437Z,1007.50
2023-02-28T03:01:19.094Z,1007.52
2023-02-28T03:02:19.449Z,1007.54
2023-02-28T03:04:58.653Z,1007.50
2023-02-28T03:05:59.099Z,1007.48
2023-02-28T03:07:00.835Z,1007.53
2023-02-28T03:08:08.186Z,1007.47
2023-02-28T03:09:03.443Z,1007.52
2023-02-28T03:10:01.668Z,1007.56
2023-02-28T03:11:00.853Z,1007.55
2023-02-28T03:12:06.078Z,1007.56
2023-02-28T03:13:00.243Z,1007.55
2023-02-28T03:14:04.174Z,1007.50
2023-02-28T03:15:03.295Z,1007.49
2023-02-28T03:16:19.650Z,1007.47
2023-02-28T03:17:03.037Z,1007.47
2023-02-28T03:24:37.845Z,1007.55
2023-02-28T03:25:46.167Z,1007.55
2023-02-28T03:29:24.019Z,1007.46
2023-02-28T03:30:23.982Z,1007.44
2023-02-28T03:34:08.686Z,1007.58
2023-02-28T03:37:25.538Z,1007.58
2023-02-28T03:40:40.411Z,1007.53
2023-02-28T03:49:37.436Z,1007.56
2023-02-28T03:55:31.649Z,1007.62
2023-02-28T03:58:21.512Z,1007.48
2023-02-28T04:04:20.514Z,1007.61
2023-02-28T04:05:20.791Z,1007.50
2023-02-28T04:09:34.781Z,1007.58
2023-02-28T04:10:42.891Z,1007.51
2023-02-28T04:11:44.692Z,1007.55
2023-02-28T04:16:35.695Z,1007.58
2023-02-28T04:20:51.170Z,1007.60
2023-02-28T04:25:44.925Z,1007.66
2023-02-28T04:31:10.364Z,1007.62
2023-02-28T04:32:10.881Z,1007.64
2023-02-28T04:33:18.101Z,1007.68
2023-02-28T04:39:02.515Z,1007.65
2023-02-28T04:40:10.852Z,1007.60
2023-02-28T04:41:10.313Z,1007.56
2023-02-28T04:44:16.725Z,1007.62
2023-02-28T04:47:34.119Z,1007.56
2023-02-28T04:50:21.394Z,1007.71
2023-02-28T04:51:21.437Z,1007.69
2023-02-28T04:52:23.524Z,1007.66
2023-02-28T04:55:36.604Z,1007.66
2023-02-28T04:59:36.287Z,1007.70
2023-02-28T05:00:36.578Z,1007.72
2023-02-28T05:01:36.173Z,1007.69
2023-02-28T05:02:37.779Z,1007.71
2023-02-28T05:03:37.491Z,1007.66
2023-02-28T05:05:09.830Z,1007.71
2023-02-28T05:05:38.578Z,1007.68
2023-02-28T05:07:11.158Z,1007.74
2023-02-28T05:07:37.710Z,1007.72
2023-02-28T05:08:37.834Z,1007.75
2023-02-28T05:09:38.244Z,1007.68
2023-02-28T05:10:37.289Z,1007.70
2023-02-28T05:11:37.286Z,1007.74
2023-02-28T05:14:51.012Z,1007.73
2023-02-28T05:15:58.662Z,1007.74
2023-02-28T05:16:53.069Z,1007.79
2023-02-28T05:18:27.713Z,1007.78
2023-02-28T05:26:14.284Z,1007.83
2023-02-28T05:32:26.176Z,1007.83
2023-02-28T05:33:34.316Z,1007.83
2023-02-28T05:40:23.823Z,1007.94
2023-02-28T05:41:59.118Z,1007.91
2023-02-28T05:44:38.375Z,1007.93
2023-02-28T05:45:38.463Z,1007.97
2023-02-28T05:46:40.795Z,1007.94
2023-02-28T05:47:40.103Z,1007.98
2023-02-28T05:48:42.620Z,1007.91
2023-02-28T05:49:39.619Z,1007.85
2023-02-28T05:50:39.784Z,1007.92
2023-02-28T05:51:39.595Z,1007.88
2023-02-28T05:52:39.716Z,1007.96
2023-02-28T05:53:40.528Z,1007.88
2023-02-28T05:54:39.634Z,1007.91
2023-02-28T06:03:52.462Z,1007.96
2023-02-28T06:04:54.284Z,1007.94
2023-02-28T06:05:55.936Z,1007.93
2023-02-28T06:06:53.923Z,1007.98
2023-02-28T06:12:30.974Z,1008.00
2023-02-28T06:13:38.646Z,1008.04
2023-02-28T06:17:40.940Z,1008.14
2023-02-28T06:33:30.787Z,1008.24
2023-02-28T06:36:36.225Z,1008.34
2023-02-28T06:37:45.305Z,1008.33
